sensor_id;sensor_type;location;lat;lon;timestamp;pressure;altitude;pressure_sealevel;temperature;humidity
17593;BME280;8915;51.760;14.300;2022-10-20T00:00:43;101947.28;;;2.45;100.00
17593;BME280;8915;51.760;14.300;2022-10-20T00:03:09;101943.56;;;2.66;100.00
17593;BME280;8915;51.760;14.300;2022-10-20T00:05:36;101943.91;;;2.78;100.00
17593;BME280;8915;51.760;14.300;2022-10-20T00:08:03;101939.63;;;2.79;100.00
17593;BME280;8915;51.760;14.300;2022-10-20T00:10:29;101942.25;;;2.80;100.00
17593;BME280;8915;51.760;14.300;2022-10-20T00:12:57;101945.06;;;2.90;100.00
17593;BME280;8915;51.760;14.300;2022-10-20T00:15:23;101940.00;;;2.93;100.00
17593;BME280;8915;51.760;14.300;2022-10-20T00:17:50;101940.84;;;2.93;100.00
17593;BME280;8915;51.760;14.300;2022-10-20T00:20:16;101938.72;;;3.10;100.00
17593;BME280;8915;51.760;14.300;2022-10-20T00:22:43;101938.91;;;3.18;100.00
17593;BME280;8915;51.760;14.300;2022-10-20T00:25:09;101936.41;;;3.21;100.00
17593;BME280;8915;51.760;14.300;2022-10-20T00:27:35;101933.97;;;3.27;100.00
17593;BME280;8915;51.760;14.300;2022-10-20T00:30:04;101940.06;;;3.29;100.00
17593;BME280;8915;51.760;14.300;2022-10-20T00:32:31;101938.34;;;3.30;100.00
17593;BME280;8915;51.760;14.300;2022-10-20T00:34:57;101937.78;;;3.41;100.00
17593;BME280;8915;51.760;14.300;2022-10-20T00:37:23;101932.72;;;3.46;100.00
17593;BME280;8915;51.760;14.300;2022-10-20T00:39:50;101936.88;;;3.41;100.00
17593;BME280;8915;51.760;14.300;2022-10-20T00:42:17;101935.25;;;3.45;100.00
17593;BME280;8915;51.760;14.300;2022-10-20T00:44:50;101921.75;;;3.55;100.00
17593;BME280;8915;51.760;14.300;2022-10-20T00:47:23;101921.00;;;3.59;100.00
17593;BME280;8915;51.760;14.300;2022-10-20T00:50:00;101912.53;;;3.28;100.00
17593;BME280;8915;51.760;14.300;2022-10-20T00:52:28;101913.34;;;3.26;100.00
17593;BME280;8915;51.760;14.300;2022-10-20T00:54:55;101909.91;;;3.27;100.00
17593;BME280;8915;51.760;14.300;2022-10-20T00:57:21;101913.69;;;3.39;100.00
17593;BME280;8915;51.760;14.300;2022-10-20T00:59:48;101910.91;;;3.32;100.00
17593;BME280;8915;51.760;14.300;2022-10-20T01:02:14;101900.59;;;3.32;100.00
17593;BME280;8915;51.760;14.300;2022-10-20T01:04:42;101901.50;;;3.34;100.00
17593;BME280;8915;51.760;14.300;2022-10-20T01:07:09;101906.88;;;3.43;100.00
17593;BME280;8915;51.760;14.300;2022-10-20T01:09:36;101899.16;;;3.43;100.00
17593;BME280;8915;51.760;14.300;2022-10-20T01:12:12;101905.34;;;3.51;100.00
17593;BME280;8915;51.760;14.300;2022-10-20T01:14:50;101899.19;;;3.46;100.00
17593;BME280;8915;51.760;14.300;2022-10-20T01:17:27;101897.31;;;3.39;100.00
17593;BME280;8915;51.760;14.300;2022-10-20T01:20:17;101895.50;;;3.35;100.00
17593;BME280;8915;51.760;14.300;2022-10-20T01:23:10;101898.22;;;3.39;100.00
17593;BME280;8915;51.760;14.300;2022-10-20T01:25:52;101900.00;;;3.44;100.00
17593;BME280;8915;51.760;14.300;2022-10-20T01:28:26;101900.88;;;3.44;100.00
17593;BME280;8915;51.760;14.300;2022-10-20T01:30:59;101905.59;;;3.26;100.00
17593;BME280;8915;51.760;14.300;2022-10-20T01:33:31;101893.72;;;3.32;100.00
17593;BME280;8915;51.760;14.300;2022-10-20T01:36:03;101894.31;;;3.20;100.00
17593;BME280;8915;51.760;14.300;2022-10-20T01:38:37;101893.41;;;3.18;100.00
17593;BME280;8915;51.760;14.300;2022-10-20T01:41:09;101888.91;;;3.11;100.00
17593;BME280;8915;51.760;14.300;2022-10-20T01:43:42;101885.97;;;2.96;100.00
17593;BME280;8915;51.760;14.300;2022-10-20T01:46:11;101882.19;;;2.81;100.00
17593;BME280;8915;51.760;14.300;2022-10-20T01:48:40;101876.34;;;2.90;100.00
17593;BME280;8915;51.760;14.300;2022-10-20T01:51:07;101878.78;;;2.84;100.00
17593;BME280;8915;51.760;14.300;2022-10-20T01:53:35;101874.69;;;2.91;100.00
17593;BME280;8915;51.760;14.300;2022-10-20T01:56:02;101868.41;;;2.81;100.00
17593;BME280;8915;51.760;14.300;2022-10-20T01:58:55;101867.50;;;2.79;100.00
17593;BME280;8915;51.760;14.300;2022-10-20T02:01:28;101871.81;;;2.80;100.00
17593;BME280;8915;51.760;14.300;2022-10-20T02:04:04;101867.84;;;2.93;100.00
17593;BME280;8915;51.760;14.300;2022-10-20T02:06:40;101862.97;;;2.70;100.00
17593;BME280;8915;51.760;14.300;2022-10-20T02:09:13;101858.78;;;2.74;100.00
17593;BME280;8915;51.760;14.300;2022-10-20T02:11:45;101847.59;;;2.73;100.00
17593;BME280;8915;51.760;14.300;2022-10-20T02:14:16;101848.47;;;2.74;100.00
17593;BME280;8915;51.760;14.300;2022-10-20T02:16:47;101839.75;;;2.69;100.00
17593;BME280;8915;51.760;14.300;2022-10-20T02:19:17;101844.94;;;2.70;100.00
17593;BME280;8915;51.760;14.300;2022-10-20T02:21:45;101841.56;;;2.71;100.00
17593;BME280;8915;51.760;14.300;2022-10-20T02:24:13;101838.34;;;2.80;100.00
17593;BME280;8915;51.760;14.300;2022-10-20T02:26:41;101832.16;;;2.73;100.00
17593;BME280;8915;51.760;14.300;2022-10-20T02:29:12;101833.44;;;2.91;100.00
17593;BME280;8915;51.760;14.300;2022-10-20T02:31:41;101829.28;;;2.96;100.00
17593;BME280;8915;51.760;14.300;2022-10-20T02:34:09;101825.16;;;2.68;100.00
17593;BME280;8915;51.760;14.300;2022-10-20T02:36:38;101811.06;;;2.55;100.00
17593;BME280;8915;51.760;14.300;2022-10-20T02:39:05;101804.09;;;2.51;100.00
17593;BME280;8915;51.760;14.300;2022-10-20T02:41:33;101788.66;;;2.51;100.00
17593;BME280;8915;51.760;14.300;2022-10-20T02:44:00;101787.03;;;2.54;100.00
17593;BME280;8915;51.760;14.300;2022-10-20T02:46:26;101792.44;;;2.65;100.00
17593;BME280;8915;51.760;14.300;2022-10-20T02:48:54;101799.44;;;2.71;100.00
17593;BME280;8915;51.760;14.300;2022-10-20T02:51:20;101792.91;;;2.83;100.00
17593;BME280;8915;51.760;14.300;2022-10-20T02:53:47;101789.19;;;2.72;100.00
17593;BME280;8915;51.760;14.300;2022-10-20T02:56:14;101798.03;;;2.82;100.00
17593;BME280;8915;51.760;14.300;2022-10-20T02:58:40;101791.25;;;2.86;100.00
17593;BME280;8915;51.760;14.300;2022-10-20T03:01:07;101790.09;;;2.73;100.00
17593;BME280;8915;51.760;14.300;2022-10-20T03:03:33;101793.47;;;2.72;100.00
17593;BME280;8915;51.760;14.300;2022-10-20T03:06:07;101793.56;;;2.75;100.00
17593;BME280;8915;51.760;14.300;2022-10-20T03:08:34;101801.38;;;2.79;100.00
17593;BME280;8915;51.760;14.300;2022-10-20T03:11:00;101787.59;;;2.77;100.00
17593;BME280;8915;51.760;14.300;2022-10-20T03:13:29;101790.34;;;2.83;100.00
17593;BME280;8915;51.760;14.300;2022-10-20T03:15:56;101786.00;;;2.82;100.00
17593;BME280;8915;51.760;14.300;2022-10-20T03:18:22;101783.19;;;2.72;100.00
17593;BME280;8915;51.760;14.300;2022-10-20T03:20:49;101779.63;;;2.67;100.00
17593;BME280;8915;51.760;14.300;2022-10-20T03:23:18;101777.69;;;2.58;100.00
17593;BME280;8915;51.760;14.300;2022-10-20T03:25:44;101776.69;;;2.53;100.00
17593;BME280;8915;51.760;14.300;2022-10-20T03:28:11;101778.44;;;2.54;100.00
17593;BME280;8915;51.760;14.300;2022-10-20T03:30:37;101776.59;;;2.50;100.00
17593;BME280;8915;51.760;14.300;2022-10-20T03:33:04;101779.56;;;2.65;100.00
17593;BME280;8915;51.760;14.300;2022-10-20T03:35:30;101772.78;;;2.69;100.00
17593;BME280;8915;51.760;14.300;2022-10-20T03:37:57;101768.31;;;2.61;100.00
17593;BME280;8915;51.760;14.300;2022-10-20T03:40:25;101764.59;;;2.49;100.00
17593;BME280;8915;51.760;14.300;2022-10-20T03:42:51;101770.63;;;2.51;100.00
17593;BME280;8915;51.760;14.300;2022-10-20T03:45:17;101761.94;;;2.45;100.00
17593;BME280;8915;51.760;14.300;2022-10-20T03:47:44;101767.00;;;2.42;100.00
17593;BME280;8915;51.760;14.300;2022-10-20T03:50:10;101772.19;;;2.44;100.00
17593;BME280;8915;51.760;14.300;2022-10-20T03:52:37;101766.53;;;2.57;100.00
17593;BME280;8915;51.760;14.300;2022-10-20T03:55:04;101762.09;;;2.52;100.00
17593;BME280;8915;51.760;14.300;2022-10-20T03:57:32;101748.41;;;2.54;100.00
17593;BME280;8915;51.760;14.300;2022-10-20T03:59:58;101756.19;;;2.56;100.00
17593;BME280;8915;51.760;14.300;2022-10-20T04:02:31;101759.78;;;2.62;100.00
17593;BME280;8915;51.760;14.300;2022-10-20T04:04:58;101757.16;;;2.61;100.00
17593;BME280;8915;51.760;14.300;2022-10-20T04:07:24;101754.47;;;2.56;100.00
17593;BME280;8915;51.760;14.300;2022-10-20T04:09:50;101755.50;;;2.63;100.00
17593;BME280;8915;51.760;14.300;2022-10-20T04:12:17;101759.41;;;2.47;100.00
17593;BME280;8915;51.760;14.300;2022-10-20T04:14:44;101755.06;;;2.46;100.00
17593;BME280;8915;51.760;14.300;2022-10-20T04:17:11;101757.72;;;2.49;100.00
17593;BME280;8915;51.760;14.300;2022-10-20T04:19:37;101754.28;;;2.49;100.00
17593;BME280;8915;51.760;14.300;2022-10-20T04:22:04;101758.19;;;2.68;100.00
17593;BME280;8915;51.760;14.300;2022-10-20T04:24:30;101758.94;;;2.63;100.00
17593;BME280;8915;51.760;14.300;2022-10-20T04:26:57;101752.06;;;2.62;100.00
17593;BME280;8915;51.760;14.300;2022-10-20T04:29:23;101753.91;;;2.68;100.00
17593;BME280;8915;51.760;14.300;2022-10-20T04:31:51;101758.88;;;2.60;100.00
17593;BME280;8915;51.760;14.300;2022-10-20T04:34:17;101751.06;;;2.57;100.00
17593;BME280;8915;51.760;14.300;2022-10-20T04:36:44;101750.31;;;2.61;100.00
17593;BME280;8915;51.760;14.300;2022-10-20T04:39:10;101745.91;;;2.57;100.00
17593;BME280;8915;51.760;14.300;2022-10-20T04:41:37;101742.56;;;2.26;100.00
17593;BME280;8915;51.760;14.300;2022-10-20T04:44:04;101749.66;;;2.35;100.00
17593;BME280;8915;51.760;14.300;2022-10-20T04:46:30;101745.75;;;2.51;100.00
17593;BME280;8915;51.760;14.300;2022-10-20T04:48:58;101740.56;;;2.48;100.00
17593;BME280;8915;51.760;14.300;2022-10-20T04:51:24;101739.00;;;2.21;100.00
17593;BME280;8915;51.760;14.300;2022-10-20T04:53:52;101735.81;;;1.98;100.00
17593;BME280;8915;51.760;14.300;2022-10-20T04:56:20;101734.88;;;1.95;100.00
17593;BME280;8915;51.760;14.300;2022-10-20T04:58:47;101725.88;;;1.79;100.00
17593;BME280;8915;51.760;14.300;2022-10-20T05:01:14;101710.03;;;1.97;100.00
17593;BME280;8915;51.760;14.300;2022-10-20T05:03:40;101721.84;;;1.88;100.00
17593;BME280;8915;51.760;14.300;2022-10-20T05:06:10;101720.22;;;1.92;100.00
17593;BME280;8915;51.760;14.300;2022-10-20T05:08:37;101716.22;;;2.03;100.00
17593;BME280;8915;51.760;14.300;2022-10-20T05:11:04;101720.06;;;2.19;100.00
17593;BME280;8915;51.760;14.300;2022-10-20T05:13:31;101708.28;;;1.94;100.00
17593;BME280;8915;51.760;14.300;2022-10-20T05:15:57;101710.00;;;1.94;100.00
17593;BME280;8915;51.760;14.300;2022-10-20T05:18:24;101711.53;;;1.87;100.00
17593;BME280;8915;51.760;14.300;2022-10-20T05:20:51;101713.34;;;1.91;100.00
17593;BME280;8915;51.760;14.300;2022-10-20T05:23:19;101708.91;;;1.85;100.00
17593;BME280;8915;51.760;14.300;2022-10-20T05:25:45;101703.81;;;1.87;100.00
17593;BME280;8915;51.760;14.300;2022-10-20T05:28:12;101703.91;;;1.92;100.00
17593;BME280;8915;51.760;14.300;2022-10-20T05:30:38;101700.69;;;1.99;100.00
17593;BME280;8915;51.760;14.300;2022-10-20T05:33:07;101700.69;;;1.99;100.00
17593;BME280;8915;51.760;14.300;2022-10-20T05:35:33;101703.38;;;2.03;100.00
17593;BME280;8915;51.760;14.300;2022-10-20T05:37:59;101701.69;;;2.05;100.00
17593;BME280;8915;51.760;14.300;2022-10-20T05:40:28;101712.06;;;2.08;100.00
17593;BME280;8915;51.760;14.300;2022-10-20T05:42:54;101715.66;;;2.14;100.00
17593;BME280;8915;51.760;14.300;2022-10-20T05:45:21;101704.75;;;2.24;100.00
17593;BME280;8915;51.760;14.300;2022-10-20T05:47:48;101707.41;;;2.27;100.00
17593;BME280;8915;51.760;14.300;2022-10-20T05:50:14;101705.75;;;2.29;100.00
17593;BME280;8915;51.760;14.300;2022-10-20T05:52:41;101703.09;;;2.26;100.00
17593;BME280;8915;51.760;14.300;2022-10-20T05:55:08;101700.75;;;2.35;100.00
17593;BME280;8915;51.760;14.300;2022-10-20T05:57:36;101700.00;;;2.39;100.00
17593;BME280;8915;51.760;14.300;2022-10-20T06:00:03;101697.38;;;2.38;100.00
17593;BME280;8915;51.760;14.300;2022-10-20T06:02:36;101695.69;;;2.38;100.00
17593;BME280;8915;51.760;14.300;2022-10-20T06:05:03;101700.78;;;2.37;100.00
17593;BME280;8915;51.760;14.300;2022-10-20T06:07:30;101710.31;;;2.41;100.00
17593;BME280;8915;51.760;14.300;2022-10-20T06:09:56;101718.84;;;2.38;100.00
17593;BME280;8915;51.760;14.300;2022-10-20T06:12:23;101719.69;;;2.39;100.00
17593;BME280;8915;51.760;14.300;2022-10-20T06:14:50;101726.69;;;2.44;100.00
17593;BME280;8915;51.760;14.300;2022-10-20T06:17:17;101729.31;;;2.46;100.00
17593;BME280;8915;51.760;14.300;2022-10-20T06:19:43;101726.81;;;2.49;100.00
17593;BME280;8915;51.760;14.300;2022-10-20T06:22:10;101725.19;;;2.53;100.00
17593;BME280;8915;51.760;14.300;2022-10-20T06:24:37;101724.38;;;2.54;100.00
17593;BME280;8915;51.760;14.300;2022-10-20T06:27:04;101724.41;;;2.55;100.00
17593;BME280;8915;51.760;14.300;2022-10-20T06:29:30;101727.09;;;2.60;100.00
17593;BME280;8915;51.760;14.300;2022-10-20T06:31:58;101724.75;;;2.69;100.00
17593;BME280;8915;51.760;14.300;2022-10-20T06:34:24;101730.00;;;2.74;100.00
17593;BME280;8915;51.760;14.300;2022-10-20T06:36:51;101739.44;;;2.73;100.00
17593;BME280;8915;51.760;14.300;2022-10-20T06:39:19;101735.09;;;2.72;100.00
17593;BME280;8915;51.760;14.300;2022-10-20T06:41:46;101736.16;;;2.80;100.00
17593;BME280;8915;51.760;14.300;2022-10-20T06:44:17;101739.69;;;2.84;100.00
17593;BME280;8915;51.760;14.300;2022-10-20T06:46:44;101744.09;;;2.90;100.00
17593;BME280;8915;51.760;14.300;2022-10-20T06:49:13;101743.16;;;2.86;100.00
17593;BME280;8915;51.760;14.300;2022-10-20T06:51:39;101743.38;;;2.95;100.00
17593;BME280;8915;51.760;14.300;2022-10-20T06:54:06;101740.88;;;2.98;100.00
17593;BME280;8915;51.760;14.300;2022-10-20T06:56:34;101744.59;;;3.10;100.00
17593;BME280;8915;51.760;14.300;2022-10-20T06:59:01;101748.19;;;3.18;100.00
17593;BME280;8915;51.760;14.300;2022-10-20T07:01:29;101743.91;;;3.20;100.00
17593;BME280;8915;51.760;14.300;2022-10-20T07:03:58;101748.47;;;3.32;100.00
17593;BME280;8915;51.760;14.300;2022-10-20T07:06:27;101746.81;;;3.34;100.00
17593;BME280;8915;51.760;14.300;2022-10-20T07:08:54;101745.28;;;3.42;100.00
17593;BME280;8915;51.760;14.300;2022-10-20T07:11:22;101747.16;;;3.51;100.00
17593;BME280;8915;51.760;14.300;2022-10-20T07:13:49;101743.84;;;3.56;100.00
17593;BME280;8915;51.760;14.300;2022-10-20T07:16:18;101739.59;;;3.58;100.00
17593;BME280;8915;51.760;14.300;2022-10-20T07:18:45;101730.34;;;3.68;100.00
17593;BME280;8915;51.760;14.300;2022-10-20T07:21:13;101732.97;;;3.73;100.00
17593;BME280;8915;51.760;14.300;2022-10-20T07:23:41;101728.84;;;3.81;100.00
17593;BME280;8915;51.760;14.300;2022-10-20T07:26:11;101731.66;;;3.93;100.00
17593;BME280;8915;51.760;14.300;2022-10-20T07:28:39;101737.00;;;4.03;100.00
17593;BME280;8915;51.760;14.300;2022-10-20T07:31:09;101728.56;;;4.11;100.00
17593;BME280;8915;51.760;14.300;2022-10-20T07:33:35;101735.63;;;4.22;100.00
17593;BME280;8915;51.760;14.300;2022-10-20T07:36:09;101732.34;;;4.30;100.00
17593;BME280;8915;51.760;14.300;2022-10-20T07:38:36;101734.25;;;4.41;100.00
17593;BME280;8915;51.760;14.300;2022-10-20T07:41:04;101735.28;;;4.50;100.00
17593;BME280;8915;51.760;14.300;2022-10-20T07:43:30;101731.94;;;4.58;100.00
17593;BME280;8915;51.760;14.300;2022-10-20T07:45:57;101733.81;;;4.66;100.00
17593;BME280;8915;51.760;14.300;2022-10-20T07:48:23;101725.31;;;4.73;100.00
17593;BME280;8915;51.760;14.300;2022-10-20T07:50:50;101727.19;;;4.84;100.00
17593;BME280;8915;51.760;14.300;2022-10-20T07:53:16;101722.03;;;4.87;100.00
17593;BME280;8915;51.760;14.300;2022-10-20T07:55:42;101728.19;;;4.93;100.00
17593;BME280;8915;51.760;14.300;2022-10-20T07:58:11;101717.97;;;5.03;100.00
17593;BME280;8915;51.760;14.300;2022-10-20T08:00:38;101714.72;;;5.16;100.00
17593;BME280;8915;51.760;14.300;2022-10-20T08:03:04;101706.25;;;5.26;100.00
17593;BME280;8915;51.760;14.300;2022-10-20T08:05:31;101710.69;;;5.40;100.00
17593;BME280;8915;51.760;14.300;2022-10-20T08:07:57;101703.88;;;5.46;100.00
17593;BME280;8915;51.760;14.300;2022-10-20T08:10:24;101704.00;;;5.57;100.00
17593;BME280;8915;51.760;14.300;2022-10-20T08:12:51;101702.38;;;5.65;100.00
17593;BME280;8915;51.760;14.300;2022-10-20T08:15:19;101708.53;;;5.74;100.00
17593;BME280;8915;51.760;14.300;2022-10-20T08:17:45;101701.72;;;5.83;100.00
17593;BME280;8915;51.760;14.300;2022-10-20T08:20:11;101702.72;;;5.95;100.00
17593;BME280;8915;51.760;14.300;2022-10-20T08:22:38;101699.38;;;6.02;100.00
17593;BME280;8915;51.760;14.300;2022-10-20T08:25:05;101683.94;;;6.13;100.00
17593;BME280;8915;51.760;14.300;2022-10-20T08:27:31;101684.00;;;6.22;100.00
17593;BME280;8915;51.760;14.300;2022-10-20T08:29:58;101687.50;;;6.25;100.00
17593;BME280;8915;51.760;14.300;2022-10-20T08:32:25;101679.81;;;6.36;100.00
17593;BME280;8915;51.760;14.300;2022-10-20T08:34:52;101685.06;;;6.44;100.00
17593;BME280;8915;51.760;14.300;2022-10-20T08:37:18;101681.66;;;6.54;100.00
17593;BME280;8915;51.760;14.300;2022-10-20T08:39:44;101673.97;;;6.63;100.00
17593;BME280;8915;51.760;14.300;2022-10-20T08:42:11;101667.13;;;6.75;100.00
17593;BME280;8915;51.760;14.300;2022-10-20T08:44:39;101668.06;;;6.83;100.00
17593;BME280;8915;51.760;14.300;2022-10-20T08:47:16;101666.44;;;7.04;100.00
17593;BME280;8915;51.760;14.300;2022-10-20T08:49:47;101653.50;;;7.13;100.00
17593;BME280;8915;51.760;14.300;2022-10-20T08:52:14;101643.13;;;7.17;100.00
17593;BME280;8915;51.760;14.300;2022-10-20T08:54:41;101644.91;;;7.29;100.00
17593;BME280;8915;51.760;14.300;2022-10-20T08:57:19;101647.56;;;7.40;100.00
17593;BME280;8915;51.760;14.300;2022-10-20T08:59:46;101642.38;;;7.45;100.00
17593;BME280;8915;51.760;14.300;2022-10-20T09:02:16;101644.13;;;7.50;100.00
17593;BME280;8915;51.760;14.300;2022-10-20T09:04:48;101647.63;;;7.60;100.00
17593;BME280;8915;51.760;14.300;2022-10-20T09:07:22;101646.75;;;7.72;100.00
17593;BME280;8915;51.760;14.300;2022-10-20T09:09:50;101639.88;;;7.78;100.00
17593;BME280;8915;51.760;14.300;2022-10-20T09:12:18;101634.69;;;7.85;100.00
17593;BME280;8915;51.760;14.300;2022-10-20T09:14:45;101637.31;;;7.97;100.00
17593;BME280;8915;51.760;14.300;2022-10-20T09:17:14;101639.03;;;8.06;100.00
17593;BME280;8915;51.760;14.300;2022-10-20T09:19:43;101630.34;;;8.18;100.00
17593;BME280;8915;51.760;14.300;2022-10-20T09:22:15;101631.25;;;8.32;100.00
17593;BME280;8915;51.760;14.300;2022-10-20T09:24:42;101639.06;;;8.44;100.00
17593;BME280;8915;51.760;14.300;2022-10-20T09:27:19;101628.63;;;8.47;100.00
17593;BME280;8915;51.760;14.300;2022-10-20T09:29:46;101619.09;;;8.52;100.00
17593;BME280;8915;51.760;14.300;2022-10-20T09:32:17;101624.28;;;8.62;100.00
17593;BME280;8915;51.760;14.300;2022-10-20T09:34:44;101622.53;;;8.70;100.00
17593;BME280;8915;51.760;14.300;2022-10-20T09:37:12;101624.25;;;8.82;100.00
17593;BME280;8915;51.760;14.300;2022-10-20T09:39:50;101623.34;;;8.87;100.00
17593;BME280;8915;51.760;14.300;2022-10-20T09:42:19;101612.06;;;8.96;100.00
17593;BME280;8915;51.760;14.300;2022-10-20T09:44:48;101613.75;;;9.05;100.00
17593;BME280;8915;51.760;14.300;2022-10-20T09:47:18;101599.84;;;9.14;100.00
17593;BME280;8915;51.760;14.300;2022-10-20T09:49:51;101596.34;;;9.18;100.00
17593;BME280;8915;51.760;14.300;2022-10-20T09:52:22;101592.00;;;9.20;100.00
17593;BME280;8915;51.760;14.300;2022-10-20T09:54:56;101592.88;;;9.22;100.00
17593;BME280;8915;51.760;14.300;2022-10-20T09:57:25;101591.94;;;9.34;100.00
17593;BME280;8915;51.760;14.300;2022-10-20T09:59:53;101584.97;;;9.39;100.00
17593;BME280;8915;51.760;14.300;2022-10-20T10:02:29;101586.63;;;9.51;100.00
17593;BME280;8915;51.760;14.300;2022-10-20T10:05:13;101583.97;;;9.60;100.00
17593;BME280;8915;51.760;14.300;2022-10-20T10:07:39;101583.94;;;9.66;100.00
17593;BME280;8915;51.760;14.300;2022-10-20T10:10:25;101577.84;;;9.67;100.00
17593;BME280;8915;51.760;14.300;2022-10-20T10:12:53;101576.03;;;9.75;100.00
17593;BME280;8915;51.760;14.300;2022-10-20T10:15:26;101570.75;;;9.88;100.00
17593;BME280;8915;51.760;14.300;2022-10-20T10:17:54;101562.84;;;9.97;100.00
17593;BME280;8915;51.760;14.300;2022-10-20T10:20:30;101571.47;;;10.02;100.00
17593;BME280;8915;51.760;14.300;2022-10-20T10:23:15;101566.25;;;10.07;100.00
17593;BME280;8915;51.760;14.300;2022-10-20T10:25:44;101563.66;;;10.02;100.00
17593;BME280;8915;51.760;14.300;2022-10-20T10:28:21;101565.31;;;10.12;100.00
17593;BME280;8915;51.760;14.300;2022-10-20T10:30:48;101566.16;;;10.14;100.00
17593;BME280;8915;51.760;14.300;2022-10-20T10:33:30;101552.19;;;10.23;100.00
17593;BME280;8915;51.760;14.300;2022-10-20T10:36:01;101557.34;;;10.31;100.00
17593;BME280;8915;51.760;14.300;2022-10-20T10:38:28;101555.53;;;10.36;100.00
17593;BME280;8915;51.760;14.300;2022-10-20T10:41:05;101546.03;;;10.35;100.00
17593;BME280;8915;51.760;14.300;2022-10-20T10:43:39;101551.16;;;10.39;100.00
17593;BME280;8915;51.760;14.300;2022-10-20T10:46:15;101542.50;;;10.37;100.00
17593;BME280;8915;51.760;14.300;2022-10-20T10:49:00;101539.81;;;10.47;
17593;BME280;8915;51.760;14.300;2022-10-20T10:51:41;101528.47;;;10.49;100.00
17593;BME280;8915;51.760;14.300;2022-10-20T10:54:24;101540.56;;;10.55;100.00
17593;BME280;8915;51.760;14.300;2022-10-20T10:56:58;101539.56;;;10.67;100.00
17593;BME280;8915;51.760;14.300;2022-10-20T10:59:28;101536.00;;;10.75;100.00
17593;BME280;8915;51.760;14.300;2022-10-20T11:02:13;101529.03;;;10.76;100.00
17593;BME280;8915;51.760;14.300;2022-10-20T11:05:15;101513.34;;;10.79;100.00
17593;BME280;8915;51.760;14.300;2022-10-20T11:07:50;101508.00;;;10.87;100.00
17593;BME280;8915;51.760;14.300;2022-10-20T11:10:24;101493.19;;;10.90;100.00
17593;BME280;8915;51.760;14.300;2022-10-20T11:13:13;101486.22;;;10.92;100.00
17593;BME280;8915;51.760;14.300;2022-10-20T11:15:51;101475.72;;;10.95;100.00
17593;BME280;8915;51.760;14.300;2022-10-20T11:18:35;101484.28;;;11.05;100.00
17593;BME280;8915;51.760;14.300;2022-10-20T11:21:17;101477.22;;;11.13;100.00
17593;BME280;8915;51.760;14.300;2022-10-20T11:23:56;101459.00;;;11.10;100.00
17593;BME280;8915;51.760;14.300;2022-10-20T11:26:31;101462.38;;;11.17;100.00
17593;BME280;8915;51.760;14.300;2022-10-20T11:29:02;101451.69;;;11.31;100.00
17593;BME280;8915;51.760;14.300;2022-10-20T11:31:33;101457.56;;;11.45;100.00
17593;BME280;8915;51.760;14.300;2022-10-20T11:34:04;101455.84;;;11.44;100.00
17593;BME280;8915;51.760;14.300;2022-10-20T11:36:35;101451.50;;;11.43;100.00
17593;BME280;8915;51.760;14.300;2022-10-20T11:39:10;101451.44;;;11.48;100.00
17593;BME280;8915;51.760;14.300;2022-10-20T11:41:44;101453.16;;;11.50;100.00
17593;BME280;8915;51.760;14.300;2022-10-20T11:44:17;101440.72;;;11.63;100.00
17593;BME280;8915;51.760;14.300;2022-10-20T11:46:48;101439.75;;;11.69;100.00
17593;BME280;8915;51.760;14.300;2022-10-20T11:49:18;101433.53;;;11.74;100.00
17593;BME280;8915;51.760;14.300;2022-10-20T11:52:04;101423.06;;;11.76;100.00
17593;BME280;8915;51.760;14.300;2022-10-20T11:54:48;101418.63;;;11.81;100.00
17593;BME280;8915;51.760;14.300;2022-10-20T11:57:27;101415.91;;;11.87;100.00
17593;BME280;8915;51.760;14.300;2022-10-20T12:00:07;101421.94;;;11.92;100.00
17593;BME280;8915;51.760;14.300;2022-10-20T12:03:06;101419.97;;;12.04;100.00
17593;BME280;8915;51.760;14.300;2022-10-20T12:05:49;101416.41;;;12.08;100.00
17593;BME280;8915;51.760;14.300;2022-10-20T12:08:29;101415.56;;;12.07;100.00
17593;BME280;8915;51.760;14.300;2022-10-20T12:11:05;101419.00;;;12.09;100.00
17593;BME280;8915;51.760;14.300;2022-10-20T12:13:40;101421.47;;;12.17;100.00
17593;BME280;8915;51.760;14.300;2022-10-20T12:19:19;101411.16;;;12.09;100.00
17593;BME280;8915;51.760;14.300;2022-10-20T12:21:53;101412.72;;;12.18;100.00
17593;BME280;8915;51.760;14.300;2022-10-20T12:24:31;101416.16;;;12.20;100.00
17593;BME280;8915;51.760;14.300;2022-10-20T12:27:04;101410.94;;;12.20;100.00
17593;BME280;8915;51.760;14.300;2022-10-20T12:29:47;101391.94;;;12.12;100.00
17593;BME280;8915;51.760;14.300;2022-10-20T12:35:30;101407.56;;;12.13;100.00
17593;BME280;8915;51.760;14.300;2022-10-20T12:38:20;101401.41;;;12.18;100.00
17593;BME280;8915;51.760;14.300;2022-10-20T12:40:51;101395.25;;;12.20;100.00
17593;BME280;8915;51.760;14.300;2022-10-20T12:43:25;101400.59;;;12.16;100.00
17593;BME280;8915;51.760;14.300;2022-10-20T12:45:56;101402.09;;;12.26;100.00
17593;BME280;8915;51.760;14.300;2022-10-20T12:48:24;101396.78;;;12.30;100.00
17593;BME280;8915;51.760;14.300;2022-10-20T12:50:51;101386.25;;;12.34;100.00
17593;BME280;8915;51.760;14.300;2022-10-20T12:53:21;101390.50;;;12.39;100.00
17593;BME280;8915;51.760;14.300;2022-10-20T12:55:55;101378.28;;;12.38;100.00
17593;BME280;8915;51.760;14.300;2022-10-20T12:58:28;101371.53;;;12.29;100.00
17593;BME280;8915;51.760;14.300;2022-10-20T13:01:09;101376.44;;;12.43;100.00
17593;BME280;8915;51.760;14.300;2022-10-20T13:03:44;101373.66;;;12.53;100.00
17593;BME280;8915;51.760;14.300;2022-10-20T13:06:40;101366.78;;;12.47;100.00
17593;BME280;8915;51.760;14.300;2022-10-20T13:09:18;101360.59;;;12.51;100.00